createdAt,value
2019-06-26T00:00:25.059Z,11.53
2019-06-26T00:02:54.095Z,10.67
2019-06-26T00:05:23.158Z,12.37
2019-06-26T00:07:52.214Z,12.13
2019-06-26T00:10:21.528Z,12.50
2019-06-26T00:12:50.624Z,12.63
2019-06-26T00:15:19.995Z,12.57
2019-06-26T00:17:49.073Z,12.53
2019-06-26T00:20:20.041Z,12.63
2019-06-26T00:22:49.141Z,12.60
2019-06-26T00:25:18.228Z,13.50
2019-06-26T00:27:47.322Z,13.20
2019-06-26T00:30:16.554Z,13.93
2019-06-26T00:32:45.718Z,13.57
2019-06-26T00:35:14.822Z,12.63
2019-06-26T00:37:43.919Z,13.17
2019-06-26T00:40:13.710Z,13.13
2019-06-26T00:42:42.756Z,13.20
2019-06-26T00:45:11.893Z,13.20
2019-06-26T00:47:41.109Z,13.27
2019-06-26T00:50:10.894Z,13.40
2019-06-26T00:52:40.435Z,12.80
2019-06-26T00:55:09.736Z,12.30
2019-06-26T00:57:38.830Z,12.90
2019-06-26T01:00:10.729Z,12.30
2019-06-26T01:02:39.938Z,12.67
2019-06-26T01:05:10.601Z,12.30
2019-06-26T01:07:39.672Z,13.03
2019-06-26T01:10:09.788Z,13.17
2019-06-26T01:12:38.824Z,13.50
2019-06-26T01:15:08.059Z,12.90
2019-06-26T01:17:37.430Z,13.43
2019-06-26T01:20:07.439Z,12.73
2019-06-26T01:22:36.721Z,12.27
2019-06-26T01:25:06.046Z,13.30
2019-06-26T01:27:35.119Z,11.97
2019-06-26T01:30:05.125Z,14.33
2019-06-26T01:32:34.563Z,13.17
2019-06-26T01:35:03.896Z,13.53
2019-06-26T01:37:32.987Z,13.40
2019-06-26T01:40:02.248Z,13.73
2019-06-26T01:42:31.343Z,13.67
2019-06-26T01:45:00.584Z,14.60
2019-06-26T01:47:29.905Z,14.60
2019-06-26T01:49:59.011Z,14.40
2019-06-26T01:52:28.377Z,13.47
2019-06-26T01:54:57.471Z,12.70
2019-06-26T01:57:26.905Z,13.67
2019-06-26T01:59:58.259Z,13.30
2019-06-26T02:02:27.357Z,13.10
2019-06-26T02:04:56.402Z,13.27
2019-06-26T02:07:25.644Z,14.80
2019-06-26T02:09:54.881Z,13.93
2019-06-26T02:12:24.205Z,13.27
2019-06-26T02:14:53.249Z,14.53
2019-06-26T02:17:22.615Z,13.20
2019-06-26T02:19:51.817Z,13.80
2019-06-26T02:22:20.909Z,14.10
2019-06-26T02:24:50.430Z,13.40
2019-06-26T02:27:19.901Z,13.87
2019-06-26T02:29:48.990Z,14.57
2019-06-26T02:32:18.036Z,13.60
2019-06-26T02:34:47.179Z,13.70
2019-06-26T02:37:16.284Z,14.90
2019-06-26T02:39:45.516Z,14.83
2019-06-26T02:42:14.644Z,13.90
2019-06-26T02:44:53.152Z,14.03
2019-06-26T02:47:20.143Z,14.20
2019-06-26T02:49:46.376Z,13.63
2019-06-26T02:52:15.457Z,14.13
2019-06-26T02:54:44.577Z,14.20
2019-06-26T02:57:14.029Z,13.70
2019-06-26T02:59:43.125Z,14.00
2019-06-26T03:02:12.457Z,14.40
2019-06-26T03:04:41.589Z,13.67
2019-06-26T03:07:10.778Z,14.13
2019-06-26T03:09:40.069Z,13.53
2019-06-26T03:12:09.207Z,13.60
2019-06-26T03:14:38.502Z,13.17
2019-06-26T03:17:07.669Z,13.90
2019-06-26T03:19:36.993Z,13.73
2019-06-26T03:22:06.091Z,13.93
2019-06-26T03:24:35.360Z,13.33
2019-06-26T03:27:04.674Z,14.47
2019-06-26T03:29:34.056Z,14.70
2019-06-26T03:32:03.178Z,13.80
2019-06-26T03:34:32.255Z,12.83
2019-06-26T03:37:01.522Z,13.43
2019-06-26T03:39:30.713Z,13.80
2019-06-26T03:41:59.838Z,14.03
2019-06-26T03:44:29.105Z,14.90
2019-06-26T03:46:58.345Z,13.17
2019-06-26T03:49:27.571Z,14.70
2019-06-26T03:51:56.784Z,14.77
2019-06-26T03:54:26.014Z,14.43
2019-06-26T03:56:55.252Z,14.00
2019-06-26T03:59:24.515Z,14.90
2019-06-26T04:01:53.862Z,14.50
2019-06-26T04:04:22.909Z,14.33
2019-06-26T04:06:52.154Z,14.77
2019-06-26T04:09:21.362Z,13.33
2019-06-26T04:11:50.717Z,15.10
2019-06-26T04:14:20.221Z,14.30
2019-06-26T04:16:49.343Z,15.70
2019-06-26T04:19:18.428Z,14.00
2019-06-26T04:21:47.507Z,14.27
2019-06-26T04:24:16.748Z,15.17
2019-06-26T04:26:46.032Z,13.97
2019-06-26T04:29:15.213Z,15.27
2019-06-26T04:31:44.306Z,14.20
2019-06-26T04:34:13.547Z,13.47
2019-06-26T04:36:42.805Z,13.97
2019-06-26T04:39:12.254Z,14.00
2019-06-26T04:41:41.380Z,14.70
2019-06-26T04:44:10.458Z,13.13
2019-06-26T04:46:39.586Z,15.20
2019-06-26T04:49:08.941Z,14.47
2019-06-26T04:51:38.147Z,14.17
2019-06-26T04:54:07.356Z,14.07
2019-06-26T04:56:36.489Z,14.20
2019-06-26T04:59:05.813Z,13.50
2019-06-26T05:01:35.939Z,13.97
2019-06-26T05:04:05.263Z,14.03
2019-06-26T05:06:34.577Z,13.30
2019-06-26T05:09:04.694Z,14.40
2019-06-26T05:11:33.806Z,13.93
2019-06-26T05:14:03.095Z,13.47
2019-06-26T05:16:32.212Z,13.77
2019-06-26T05:19:01.476Z,13.53
2019-06-26T05:21:30.715Z,12.10
2019-06-26T05:24:00.072Z,13.70
2019-06-26T05:26:29.158Z,13.80
2019-06-26T05:28:58.385Z,13.60
2019-06-26T05:31:27.689Z,13.60
2019-06-26T05:33:56.790Z,13.47
2019-06-26T05:36:25.922Z,14.07
2019-06-26T05:38:55.399Z,14.33
2019-06-26T05:41:24.505Z,12.90
2019-06-26T05:43:53.832Z,13.57
2019-06-26T05:46:30.898Z,12.47
2019-06-26T05:48:54.119Z,13.30
2019-06-26T05:51:23.370Z,12.77
2019-06-26T05:53:52.573Z,12.97
2019-06-26T05:56:21.776Z,11.27
2019-06-26T05:58:51.006Z,12.80
2019-06-26T06:01:20.406Z,13.10
2019-06-26T06:03:49.482Z,12.93
2019-06-26T06:06:18.554Z,12.87
2019-06-26T06:08:47.976Z,12.30
2019-06-26T06:11:17.043Z,13.33
2019-06-26T06:13:46.358Z,12.50
2019-06-26T06:16:15.615Z,12.73
2019-06-26T06:18:44.757Z,13.33
2019-06-26T06:21:14.270Z,12.90
2019-06-26T06:23:43.327Z,11.93
2019-06-26T06:26:12.382Z,11.70
2019-06-26T06:28:42.635Z,12.20
2019-06-26T06:31:11.969Z,12.20
2019-06-26T06:33:41.203Z,11.07
2019-06-26T06:36:10.510Z,11.43
2019-06-26T06:38:39.540Z,12.07
2019-06-26T06:41:08.859Z,11.00
2019-06-26T06:43:37.963Z,10.90
2019-06-26T06:46:07.124Z,11.20
2019-06-26T06:48:36.262Z,10.87
2019-06-26T06:51:05.989Z,10.03
2019-06-26T06:53:35.065Z,9.83
2019-06-26T06:56:04.383Z,9.60
2019-06-26T06:58:33.504Z,9.93
2019-06-26T07:01:02.908Z,10.40
2019-06-26T07:03:31.983Z,10.50
2019-06-26T07:06:01.212Z,10.50
2019-06-26T07:08:32.102Z,9.17
2019-06-26T07:11:01.378Z,9.93
2019-06-26T07:13:30.564Z,10.67
2019-06-26T07:15:59.836Z,8.87
2019-06-26T07:18:29.083Z,9.67
2019-06-26T07:20:58.366Z,9.30
2019-06-26T07:23:27.409Z,10.17
2019-06-26T07:25:56.640Z,10.40
2019-06-26T07:28:25.911Z,9.60
2019-06-26T07:30:55.131Z,9.70
2019-06-26T07:33:24.464Z,9.50
2019-06-26T07:35:53.676Z,10.00
2019-06-26T07:38:22.768Z,10.47
2019-06-26T07:40:52.034Z,9.70
2019-06-26T07:43:21.273Z,9.60
2019-06-26T07:45:50.546Z,10.10
2019-06-26T07:48:19.600Z,10.20
2019-06-26T07:50:48.783Z,9.10
2019-06-26T07:53:18.029Z,9.57
2019-06-26T07:55:47.360Z,9.23
2019-06-26T07:58:16.669Z,9.23
2019-06-26T08:00:45.765Z,9.50
2019-06-26T08:03:14.964Z,9.00
2019-06-26T08:05:44.253Z,8.43
2019-06-26T08:08:14.773Z,8.17
2019-06-26T08:10:43.958Z,8.77
2019-06-26T08:13:13.082Z,8.13
2019-06-26T08:15:42.143Z,8.03
2019-06-26T08:18:11.341Z,8.03
2019-06-26T08:20:55.211Z,8.60
2019-06-26T08:23:11.450Z,6.90
2019-06-26T08:25:42.380Z,7.70
2019-06-26T08:28:11.487Z,7.57
2019-06-26T08:30:40.496Z,8.50
2019-06-26T08:33:09.524Z,7.47
2019-06-26T08:35:38.917Z,7.73
2019-06-26T08:38:12.504Z,7.50
2019-06-26T08:40:38.813Z,7.80
2019-06-26T08:43:07.941Z,7.80
2019-06-26T08:45:37.665Z,7.10
2019-06-26T08:48:17.342Z,8.00
2019-06-26T08:50:37.641Z,7.20
2019-06-26T08:53:06.856Z,7.03
2019-06-26T08:55:36.115Z,7.47
2019-06-26T08:58:06.439Z,7.43
2019-06-26T09:00:35.455Z,8.27
2019-06-26T09:03:05.043Z,8.10
2019-06-26T09:05:47.580Z,7.60
2019-06-26T09:08:05.129Z,8.07
2019-06-26T09:10:34.836Z,6.97
2019-06-26T09:13:03.965Z,7.30
2019-06-26T09:15:33.295Z,7.90
2019-06-26T09:18:02.456Z,7.77
2019-06-26T09:20:37.453Z,7.53
2019-06-26T09:23:06.774Z,7.93
2019-06-26T09:25:35.923Z,7.57
2019-06-26T09:28:05.373Z,8.83
2019-06-26T09:30:34.698Z,7.77
2019-06-26T09:33:03.875Z,7.97
2019-06-26T09:35:32.967Z,7.50
2019-06-26T09:38:02.050Z,9.20
2019-06-26T09:40:32.104Z,7.97
2019-06-26T09:43:01.482Z,7.57
2019-06-26T09:45:30.680Z,7.87
2019-06-26T09:47:59.841Z,8.90
2019-06-26T09:50:29.114Z,9.90
2019-06-26T09:52:58.281Z,10.10
2019-06-26T09:55:27.563Z,9.40
2019-06-26T09:57:56.773Z,8.67
2019-06-26T10:00:26.220Z,9.13
2019-06-26T10:02:55.496Z,9.20
2019-06-26T10:05:24.559Z,9.07
2019-06-26T10:07:53.694Z,8.43
2019-06-26T10:10:22.938Z,9.00
2019-06-26T10:12:52.053Z,8.93
2019-06-26T10:15:21.356Z,9.63
2019-06-26T10:17:50.533Z,9.07
2019-06-26T10:20:19.999Z,8.50
2019-06-26T10:22:49.213Z,8.83
2019-06-26T10:25:18.600Z,8.23
2019-06-26T10:27:47.659Z,8.13
2019-06-26T10:30:17.033Z,7.80
2019-06-26T10:32:46.198Z,7.30
2019-06-26T10:35:15.407Z,7.07
2019-06-26T10:37:44.485Z,7.50
2019-06-26T10:40:16.326Z,7.33
2019-06-26T10:42:44.705Z,8.83
2019-06-26T10:45:14.353Z,8.43
2019-06-26T10:47:43.462Z,8.47
2019-06-26T10:50:14.600Z,9.10
2019-06-26T10:52:43.730Z,7.97
2019-06-26T10:55:12.933Z,8.13
2019-06-26T10:57:42.028Z,8.63
2019-06-26T11:00:11.301Z,8.07
2019-06-26T11:02:40.424Z,8.73
2019-06-26T11:05:10.185Z,8.40
2019-06-26T11:07:39.309Z,8.60
2019-06-26T11:10:09.664Z,9.10
2019-06-26T11:12:38.997Z,8.53
2019-06-26T11:15:08.495Z,8.57
2019-06-26T11:17:37.792Z,9.03
2019-06-26T11:20:07.499Z,8.80
2019-06-26T11:22:36.713Z,8.10
2019-06-26T11:25:06.323Z,8.93
2019-06-26T11:27:35.627Z,8.53
2019-06-26T11:30:06.251Z,8.50
2019-06-26T11:32:35.416Z,8.20
2019-06-26T11:35:05.754Z,8.47
2019-06-26T11:37:34.850Z,9.00
2019-06-26T11:40:04.547Z,9.07
2019-06-26T11:42:34.086Z,8.17
2019-06-26T11:45:03.427Z,9.20
2019-06-26T11:47:32.539Z,8.83
2019-06-26T11:50:01.611Z,8.57
2019-06-26T11:52:30.708Z,7.90
2019-06-26T11:55:02.905Z,8.70
2019-06-26T11:57:31.326Z,8.80
2019-06-26T12:00:00.569Z,8.97
2019-06-26T12:02:29.703Z,9.47
2019-06-26T12:04:58.823Z,8.70
2019-06-26T12:07:28.085Z,9.50
2019-06-26T12:09:57.322Z,7.87
2019-06-26T12:12:26.725Z,8.77
2019-06-26T12:14:56.030Z,7.47
2019-06-26T12:17:25.175Z,8.70
2019-06-26T12:19:54.635Z,8.33
2019-06-26T12:22:23.702Z,8.10
2019-06-26T12:24:52.795Z,7.90
2019-06-26T12:27:21.911Z,8.47
2019-06-26T12:29:51.022Z,8.20
2019-06-26T12:32:20.273Z,8.23
2019-06-26T12:34:49.773Z,7.50
2019-06-26T12:37:18.996Z,7.70
2019-06-26T12:39:48.107Z,7.87
2019-06-26T12:42:17.203Z,8.07
2019-06-26T12:44:46.486Z,8.13
2019-06-26T12:47:15.553Z,7.90
2019-06-26T12:49:44.850Z,8.57
2019-06-26T12:52:16.922Z,8.20
2019-06-26T12:54:45.134Z,8.00
2019-06-26T12:57:14.384Z,7.30
2019-06-26T12:59:56.697Z,9.20
2019-06-26T13:02:14.867Z,9.70
2019-06-26T13:04:45.054Z,8.37
2019-06-26T13:07:14.416Z,8.13
2019-06-26T13:09:43.558Z,7.90
2019-06-26T13:12:12.712Z,7.90
2019-06-26T13:14:41.869Z,7.73
2019-06-26T13:17:11.201Z,7.90
2019-06-26T13:19:40.339Z,7.90
2019-06-26T13:22:09.669Z,7.70
2019-06-26T13:24:38.871Z,8.70
2019-06-26T13:27:07.961Z,7.60
2019-06-26T13:29:37.336Z,7.97
2019-06-26T13:32:06.619Z,8.10
2019-06-26T13:34:35.730Z,8.37
2019-06-26T13:37:07.318Z,7.20
2019-06-26T13:39:36.023Z,8.90
2019-06-26T13:42:05.369Z,7.10
2019-06-26T13:44:34.556Z,7.30
2019-06-26T13:47:03.710Z,7.47
2019-06-26T13:49:33.074Z,7.20
2019-06-26T13:52:03.134Z,7.50
2019-06-26T13:54:32.254Z,7.60
2019-06-26T13:57:01.557Z,11.20
2019-06-26T13:59:30.850Z,8.33
2019-06-26T14:02:00.024Z,7.60
2019-06-26T14:04:29.279Z,8.00
2019-06-26T14:06:58.438Z,7.90
2019-06-26T14:09:27.604Z,7.77
2019-06-26T14:11:56.910Z,8.13
2019-06-26T14:14:40.721Z,7.40
2019-06-26T14:16:56.998Z,8.97
2019-06-26T14:19:26.960Z,8.10
2019-06-26T14:21:56.148Z,7.90
2019-06-26T14:24:25.350Z,7.70
2019-06-26T14:26:54.393Z,7.70
2019-06-26T14:29:23.440Z,7.53
2019-06-26T14:31:52.829Z,8.03
2019-06-26T14:34:27.770Z,8.60
2019-06-26T14:36:55.061Z,8.00
2019-06-26T14:39:24.182Z,7.87
2019-06-26T14:41:53.487Z,8.53
2019-06-26T14:44:22.736Z,8.50
2019-06-26T14:46:51.799Z,7.77
2019-06-26T14:49:21.219Z,9.00
2019-06-26T14:51:50.359Z,8.37
2019-06-26T14:54:19.623Z,7.87
2019-06-26T14:56:48.678Z,7.97
2019-06-26T14:59:18.042Z,8.07
2019-06-26T15:01:47.179Z,8.03
2019-06-26T15:04:16.304Z,7.80
2019-06-26T15:06:45.623Z,8.27
2019-06-26T15:09:14.873Z,7.77
2019-06-26T15:11:43.945Z,9.00
2019-06-26T15:14:13.376Z,8.40
2019-06-26T15:16:42.611Z,7.87
2019-06-26T15:19:11.943Z,7.83
2019-06-26T15:21:48.643Z,8.00
2019-06-26T15:24:12.540Z,8.27
2019-06-26T15:26:41.619Z,8.00
2019-06-26T15:29:10.062Z,7.90
2019-06-26T15:31:39.165Z,7.50
2019-06-26T15:34:08.262Z,8.47
2019-06-26T15:36:37.404Z,8.10
2019-06-26T15:39:07.753Z,8.40
2019-06-26T15:41:36.806Z,7.47
2019-06-26T15:44:06.063Z,8.43
2019-06-26T15:46:37.366Z,7.93
2019-06-26T15:49:06.442Z,7.87
2019-06-26T15:51:35.722Z,8.93
2019-06-26T15:54:04.813Z,7.30
2019-06-26T15:56:34.183Z,8.13
2019-06-26T15:59:03.267Z,7.90
2019-06-26T16:01:32.557Z,8.93
2019-06-26T16:04:01.629Z,8.13
2019-06-26T16:06:30.813Z,8.27
2019-06-26T16:09:00.269Z,8.10
2019-06-26T16:11:29.337Z,7.70
2019-06-26T16:13:59.453Z,7.67
2019-06-26T16:16:29.137Z,8.00
2019-06-26T16:19:03.641Z,7.70
2019-06-26T16:21:32.941Z,7.70
2019-06-26T16:24:02.330Z,9.30
2019-06-26T16:26:31.429Z,8.60
2019-06-26T16:29:00.571Z,7.90
2019-06-26T16:31:29.938Z,8.50
2019-06-26T16:33:59.194Z,8.43
2019-06-26T16:36:28.349Z,8.10
2019-06-26T16:38:57.556Z,8.40
2019-06-26T16:41:26.766Z,7.90
2019-06-26T16:43:55.958Z,7.90
2019-06-26T16:46:25.497Z,8.30
2019-06-26T16:48:54.565Z,8.77
2019-06-26T16:51:23.716Z,7.87
2019-06-26T16:53:52.766Z,9.50
2019-06-26T16:56:22.266Z,7.40
2019-06-26T16:58:51.350Z,8.23
2019-06-26T17:01:20.650Z,7.73
2019-06-26T17:03:49.727Z,8.77
2019-06-26T17:06:19.059Z,9.27
2019-06-26T17:08:48.320Z,10.17
2019-06-26T17:11:17.475Z,8.20
2019-06-26T17:13:46.950Z,8.73
2019-06-26T17:16:16.043Z,8.60
2019-06-26T17:18:45.155Z,9.23
2019-06-26T17:21:14.413Z,8.20
2019-06-26T17:23:43.838Z,8.80
2019-06-26T17:26:13.063Z,8.50
2019-06-26T17:28:42.343Z,9.50
2019-06-26T17:31:11.527Z,8.60
2019-06-26T17:33:40.876Z,8.70
2019-06-26T17:36:10.019Z,9.30
2019-06-26T17:38:39.219Z,9.17
2019-06-26T17:41:08.426Z,8.70
2019-06-26T17:43:37.517Z,8.40
2019-06-26T17:46:06.619Z,7.90
2019-06-26T17:48:36.881Z,8.70
2019-06-26T17:51:06.008Z,8.60
2019-06-26T17:53:35.499Z,8.97
2019-06-26T17:56:04.574Z,8.90
2019-06-26T17:58:33.720Z,9.83
2019-06-26T18:01:03.115Z,9.07
2019-06-26T18:03:32.501Z,8.57
2019-06-26T18:06:02.179Z,8.77
2019-06-26T18:08:31.540Z,9.20
2019-06-26T18:11:00.748Z,9.40
2019-06-26T18:13:29.936Z,9.33
2019-06-26T18:15:59.380Z,9.70
2019-06-26T18:18:28.490Z,9.20
2019-06-26T18:20:57.996Z,9.80
2019-06-26T18:23:37.203Z,9.47
2019-06-26T18:26:11.861Z,10.10
2019-06-26T18:28:29.271Z,9.67
2019-06-26T18:30:58.385Z,9.40
2019-06-26T18:33:27.629Z,10.20
2019-06-26T18:35:56.941Z,9.90
2019-06-26T18:38:26.061Z,10.50
2019-06-26T18:40:55.322Z,10.60
2019-06-26T18:43:24.536Z,10.63
2019-06-26T18:45:54.178Z,11.13
2019-06-26T18:48:24.990Z,10.50
2019-06-26T18:50:54.335Z,9.90
2019-06-26T18:53:23.558Z,10.23
2019-06-26T18:55:52.640Z,9.57
2019-06-26T18:58:21.854Z,10.80
2019-06-26T19:00:51.186Z,10.33
2019-06-26T19:03:20.286Z,11.37
2019-06-26T19:05:49.500Z,11.00
2019-06-26T19:08:18.668Z,11.10
2019-06-26T19:10:47.928Z,11.47
2019-06-26T19:13:20.303Z,11.13
2019-06-26T19:15:48.264Z,10.63
2019-06-26T19:18:17.606Z,11.80
2019-06-26T19:20:46.912Z,12.13
2019-06-26T19:23:16.247Z,10.13
2019-06-26T19:25:45.363Z,11.37
2019-06-26T19:28:14.734Z,11.53
2019-06-26T19:30:44.017Z,12.43
2019-06-26T19:33:13.274Z,11.30
2019-06-26T19:35:42.575Z,10.80
2019-06-26T19:38:11.711Z,11.77
2019-06-26T19:40:42.871Z,11.30
2019-06-26T19:43:12.004Z,11.50
2019-06-26T19:45:41.144Z,12.20
2019-06-26T19:48:10.234Z,12.27
2019-06-26T19:50:39.628Z,12.17
2019-06-26T19:53:08.693Z,13.10
2019-06-26T19:55:38.928Z,12.53
2019-06-26T19:58:08.003Z,12.20
2019-06-26T20:00:37.168Z,12.50
2019-06-26T20:03:06.597Z,13.97
2019-06-26T20:05:35.813Z,13.03
2019-06-26T20:08:04.919Z,13.90
2019-06-26T20:10:34.061Z,13.63
2019-06-26T20:13:03.252Z,13.87
2019-06-26T20:15:32.599Z,13.23
2019-06-26T20:18:04.203Z,12.73
2019-06-26T20:20:32.944Z,14.07
2019-06-26T20:23:02.401Z,12.53
2019-06-26T20:25:31.597Z,14.00
2019-06-26T20:28:00.719Z,13.13
2019-06-26T20:30:33.283Z,13.07
2019-06-26T20:33:02.407Z,13.33
2019-06-26T20:35:31.996Z,12.93
2019-06-26T20:38:02.042Z,13.20
2019-06-26T20:40:31.186Z,13.80
2019-06-26T20:43:00.323Z,13.90
2019-06-26T20:45:29.440Z,13.43
2019-06-26T20:48:00.657Z,12.83
2019-06-26T20:50:30.127Z,13.47
2019-06-26T20:52:59.224Z,13.40
2019-06-26T20:55:28.361Z,13.43
2019-06-26T20:57:57.475Z,14.00
2019-06-26T21:00:26.756Z,13.23
2019-06-26T21:02:55.988Z,13.50
2019-06-26T21:05:28.627Z,13.80
2019-06-26T21:07:56.125Z,13.53
2019-06-26T21:10:25.238Z,13.83
2019-06-26T21:12:54.582Z,15.13
2019-06-26T21:15:23.716Z,14.57
2019-06-26T21:17:52.821Z,14.60
2019-06-26T21:20:22.345Z,14.93
2019-06-26T21:22:53.349Z,15.17
2019-06-26T21:25:22.510Z,15.60
2019-06-26T21:27:51.658Z,15.27
2019-06-26T21:30:21.190Z,15.00
2019-06-26T21:32:50.361Z,15.10
2019-06-26T21:35:19.626Z,14.13
2019-06-26T21:37:48.758Z,15.77
2019-06-26T21:40:17.822Z,14.70
2019-06-26T21:42:47.353Z,15.30
2019-06-26T21:45:19.925Z,15.23
2019-06-26T21:47:47.611Z,15.60
2019-06-26T21:50:16.673Z,16.10
2019-06-26T21:52:45.780Z,17.67
2019-06-26T21:55:14.903Z,17.47
2019-06-26T21:57:44.268Z,17.20
2019-06-26T22:00:13.992Z,17.97
2019-06-26T22:02:43.087Z,17.63
2019-06-26T22:05:13.115Z,17.60
2019-06-26T22:07:42.219Z,17.90
2019-06-26T22:10:11.621Z,16.13
2019-06-26T22:12:40.716Z,17.80
2019-06-26T22:15:09.996Z,16.83
2019-06-26T22:17:39.184Z,16.83
2019-06-26T22:20:12.358Z,17.70
2019-06-26T22:22:39.392Z,16.43
2019-06-26T22:25:08.837Z,16.33
2019-06-26T22:27:37.938Z,18.17
2019-06-26T22:30:08.163Z,17.23
2019-06-26T22:32:37.287Z,16.60
2019-06-26T22:35:07.233Z,16.70
2019-06-26T22:37:36.354Z,16.83
2019-06-26T22:40:05.951Z,17.00
2019-06-26T22:42:35.203Z,16.07
2019-06-26T22:45:04.536Z,15.07
2019-06-26T22:47:33.789Z,16.60
2019-06-26T22:50:02.932Z,15.07
2019-06-26T22:52:32.049Z,14.57
2019-06-26T22:55:01.353Z,16.27
2019-06-26T22:57:30.462Z,15.90
2019-06-26T22:59:59.679Z,16.30
2019-06-26T23:02:28.921Z,15.67
2019-06-26T23:04:58.151Z,15.63
2019-06-26T23:07:27.477Z,15.97
2019-06-26T23:09:56.560Z,15.27
2019-06-26T23:12:25.716Z,16.60
2019-06-26T23:14:55.057Z,16.70
2019-06-26T23:17:24.222Z,16.37
2019-06-26T23:19:53.498Z,15.77
2019-06-26T23:22:22.682Z,15.80
2019-06-26T23:24:51.943Z,16.53
2019-06-26T23:27:21.174Z,16.10
2019-06-26T23:29:50.361Z,16.90
2019-06-26T23:32:19.650Z,16.70
2019-06-26T23:34:48.748Z,16.73
2019-06-26T23:37:18.051Z,17.70
2019-06-26T23:39:48.119Z,17.97
2019-06-26T23:42:17.799Z,17.37
2019-06-26T23:44:46.898Z,17.43
2019-06-26T23:47:16.289Z,18.50
2019-06-26T23:49:45.325Z,17.20
2019-06-26T23:52:16.344Z,17.13
2019-06-26T23:54:45.586Z,17.03
2019-06-26T23:57:14.728Z,16.30
2019-06-26T23:59:43.902Z,17.73
